Portada
METAR-TAF:

METAR-TAF

Aeropuertos :

Qaisumah, Arabia Saudita

latitud: 28-19N, longitud: 046-07E, altitud: 358 m

Observación

El informe se hizo hace 1 hora y 14 minutos, a las 11:00 UTC
Viento 8 kt del norte
Temperatura 21°C
Humedad 40%
Presión 1020 hPa
Visibilidad 10 km o más
sin nubes por debajo de 1500 m y sin presencia de cumulonimbus.

METAR: OEPA 271100Z 36008KT CAVOK 21/07 Q1020 NOSIG

Hora: 15:14 (12:14 UTC)

Pronóstico

El informe se hizo hace 1 hora y 14 minutos, a las 11:00 UTC
Pronóstico válido del 27 a las 12 UTC al 28 a las 18 UTC
Viento 5 kt del noroeste con ráfagas de 15 kt
Visibilidad: 7000 m

TAF: OEPA 271100Z 2712/2818 32005G15KT 7000 NSC

Observaciones y pronósticos meteorológicos de más de 4000 aeropuertos (mensajes METAR y TAF).

Los puntos amarillos y rojos representan las estaciones disponibles.

Ponga el ratón en el punto deseado para ver el nombre de la estación.

Haga clic para ver las observaciones y los pronósticos meteorológicos.

Para cambiar el mapa : haga clic en los botones verdes con una cruz de color negro para hacer un zoom, en el botón verde con un guión para alejar o en las flechas verdes para mapas adyacentes.


METAR-TAF: